Time;durP1;ratioP1;P1;durP2;ratioP2;P2;SDS_P1;SDS_P2;PMS_P1;PMS_P2;Temp;Humidity;BMP_temperature;BMP_pressure;BME280_temperature;BME280_humidity;BME280_pressure;Samples;Min_cycle;Max_cycle;Signal;HPM_P1;HPM_P2
2024/01/08 00:00:55;;;;;;;5.28;2.72;;;;;;;;;;4976845;28;20066;-70
2024/01/08 00:03:22;;;;;;;3.58;2.65;;;;;;;;;;4976523;28;20097;-70
2024/01/08 00:05:50;;;;;;;6.50;2.85;;;;;;;;;;4976871;28;20467;-70
2024/01/08 00:08:18;;;;;;;6.63;3.00;;;;;;;;;;4976571;28;20066;-70
2024/01/08 00:10:46;;;;;;;7.53;2.42;;;;;;;;;;4976450;28;20045;-71
2024/01/08 00:13:13;;;;;;;16.42;3.40;;;;;;;;;;4976452;28;20046;-71
2024/01/08 00:15:41;;;;;;;4.65;2.65;;;;;;;;;;4976326;28;20057;-71
2024/01/08 00:18:08;;;;;;;6.75;2.70;;;;;;;;;;4990742;28;20440;-71
2024/01/08 00:20:36;;;;;;;4.55;2.70;;;;;;;;;;4978469;28;20141;-71
2024/01/08 00:23:04;;;;;;;6.50;3.20;;;;;;;;;;4995649;28;20046;-70
2024/01/08 00:25:31;;;;;;;5.82;2.88;;;;;;;;;;4995597;28;20046;-71
2024/01/08 00:28:00;;;;;;;5.20;3.00;;;;;;;;;;4995878;28;20074;-70
2024/01/08 00:30:28;;;;;;;5.07;2.90;;;;;;;;;;4995437;28;20046;-70
2024/01/08 00:32:55;;;;;;;5.35;2.42;;;;;;;;;;4995484;28;20049;-70
2024/01/08 00:35:23;;;;;;;3.58;2.90;;;;;;;;;;4977700;28;20056;-70
2024/01/08 00:37:50;;;;;;;5.30;2.65;;;;;;;;;;4994791;28;20504;-70
2024/01/08 00:40:19;;;;;;;11.07;3.33;;;;;;;;;;4995281;28;20053;-70
2024/01/08 00:42:46;;;;;;;5.28;2.65;;;;;;;;;;4995398;28;20034;-70
2024/01/08 00:45:14;;;;;;;7.22;3.17;;;;;;;;;;4995465;28;20400;-70
2024/01/08 00:47:41;;;;;;;6.75;2.65;;;;;;;;;;4995384;28;20134;-70
2024/01/08 00:50:13;;;;;;;4.72;3.13;;;;;;;;;;4995176;28;20049;-71
2024/01/08 00:52:41;;;;;;;5.43;2.60;;;;;;;;;;4995169;28;20038;-70
2024/01/08 00:55:11;;;;;;;7.10;2.78;;;;;;;;;;4995150;28;20056;-70
2024/01/08 00:57:40;;;;;;;6.88;3.90;;;;;;;;;;4995102;28;20042;-70
2024/01/08 01:00:10;;;;;;;5.82;3.30;;;;;;;;;;4995052;28;20389;-70
2024/01/08 01:02:41;;;;;;;5.80;2.95;;;;;;;;;;4977672;28;20489;-70
2024/01/08 01:05:09;;;;;;;6.35;2.85;;;;;;;;;;4994948;28;20088;-70
2024/01/08 01:07:36;;;;;;;3.50;2.25;;;;;;;;;;4994863;28;20038;-70
2024/01/08 01:10:04;;;;;;;10.55;3.90;;;;;;;;;;4994725;28;20544;-70
2024/01/08 01:12:34;;;;;;;3.40;2.53;;;;;;;;;;4994840;28;20046;-71
2024/01/08 01:15:01;;;;;;;6.18;3.58;;;;;;;;;;4994625;28;20042;-70
2024/01/08 01:17:29;;;;;;;7.72;4.38;;;;;;;;;;4994580;28;20404;-70
2024/01/08 01:19:57;;;;;;;5.90;2.85;;;;;;;;;;4994614;28;20046;-70
2024/01/08 01:22:25;;;;;;;8.63;3.80;;;;;;;;;;4977447;28;20039;-70
2024/01/08 01:24:52;;;;;;;5.75;3.50;;;;;;;;;;4994519;28;20046;-70
2024/01/08 01:27:20;;;;;;;5.63;2.90;;;;;;;;;;4994727;28;20410;-70
2024/01/08 01:29:48;;;;;;;5.32;3.42;;;;;;;;;;4994652;28;20042;-70
2024/01/08 01:32:15;;;;;;;8.98;3.40;;;;;;;;;;4994385;28;20035;-70
2024/01/08 01:34:43;;;;;;;3.67;2.80;;;;;;;;;;4994312;28;20053;-70
2024/01/08 01:37:10;;;;;;;7.75;3.38;;;;;;;;;;4994328;28;20046;-70
2024/01/08 01:39:38;;;;;;;5.57;3.58;;;;;;;;;;4994368;28;20424;-70
2024/01/08 01:42:05;;;;;;;7.97;4.20;;;;;;;;;;4976745;28;20076;-70
2024/01/08 01:44:33;;;;;;;3.25;2.55;;;;;;;;;;4994143;28;20122;-70
2024/01/08 01:47:01;;;;;;;6.20;3.95;;;;;;;;;;4993924;28;20043;-70
2024/01/08 01:49:28;;;;;;;6.03;3.90;;;;;;;;;;4993956;28;20053;-70
2024/01/08 01:51:56;;;;;;;7.72;3.50;;;;;;;;;;4993992;28;20069;-70
2024/01/08 01:54:26;;;;;;;6.90;3.25;;;;;;;;;;4994014;28;20045;-70
2024/01/08 01:56:55;;;;;;;4.43;2.90;;;;;;;;;;4976646;28;20046;-70
2024/01/08 01:59:24;;;;;;;5.30;3.00;;;;;;;;;;4993959;28;20046;-70
2024/01/08 02:01:52;;;;;;;4.63;3.15;;;;;;;;;;4993856;28;20042;-71
2024/01/08 02:04:20;;;;;;;4.38;3.08;;;;;;;;;;4993851;28;20373;-70
2024/01/08 02:06:49;;;;;;;5.25;2.92;;;;;;;;;;4993906;28;20046;-70
2024/01/08 02:09:16;;;;;;;5.50;3.22;;;;;;;;;;4976460;28;20121;-70
2024/01/08 02:11:44;;;;;;;5.18;3.80;;;;;;;;;;4993698;28;20077;-70
2024/01/08 02:14:15;;;;;;;5.70;3.85;;;;;;;;;;4993541;28;20555;-70
2024/01/08 02:16:43;;;;;;;5.68;3.42;;;;;;;;;;4993458;28;20096;-70
2024/01/08 02:19:11;;;;;;;4.28;3.08;;;;;;;;;;4993522;28;20123;-70
2024/01/08 02:21:39;;;;;;;5.15;3.72;;;;;;;;;;4993427;28;20046;-69
2024/01/08 02:24:07;;;;;;;6.82;3.75;;;;;;;;;;4993488;28;20069;-70
2024/01/08 02:26:36;;;;;;;5.90;3.97;;;;;;;;;;4993395;28;20038;-70
2024/01/08 02:29:04;;;;;;;5.22;3.88;;;;;;;;;;4993498;28;20070;-70
2024/01/08 02:31:32;;;;;;;6.00;3.92;;;;;;;;;;4993329;28;20042;-70
2024/01/08 02:34:00;;;;;;;5.20;4.07;;;;;;;;;;4993389;28;20038;-69
2024/01/08 02:36:27;;;;;;;4.75;3.20;;;;;;;;;;4993298;28;20496;-69
2024/01/08 02:38:55;;;;;;;5.13;2.83;;;;;;;;;;4993265;28;20038;-71
2024/01/08 02:41:22;;;;;;;;;;;;;;;;;;4993445;28;20049;-71
2024/01/08 02:43:50;;;;;;;;;;;;;;;;;;4976137;28;20004;-71
2024/01/08 02:46:17;;;;;;;;;;;;;;;;;;4993602;28;19965;-71
2024/01/08 02:48:45;;;;;;;;;;;;;;;;;;4993525;28;19929;-71
2024/01/08 02:51:12;;;;;;;;;;;;;;;;;;4993524;28;19929;-71
2024/01/08 02:53:40;;;;;;;;;;;;;;;;;;4993525;28;19926;-71
2024/01/08 02:56:07;;;;;;;;;;;;;;;;;;4993733;28;20009;-71
2024/01/08 02:58:34;;;;;;;;;;;;;;;;;;5008489;28;20356;-70
2024/01/08 03:01:02;;;;;;;;;;;;;;;;;;4996999;28;19929;-71
2024/01/08 03:03:30;;;;;;;;;;;;;;;;;;4980187;28;20384;-71
2024/01/08 03:05:57;;;;;;;;;;;;;;;;;;4997383;28;19932;-71
2024/01/08 03:08:25;;;;;;;;;;;;;;;;;;4997652;28;19933;-71
2024/01/08 03:10:52;;;;;;;;;;;;;;;;;;4997360;28;19929;-71
2024/01/08 03:13:19;;;;;;;;;;;;;;;;;;4997777;28;19989;-70
2024/01/08 03:15:47;;;;;;;;;;;;;;;;;;4997258;28;20406;-70
2024/01/08 03:18:14;;;;;;;;;;;;;;;;;;4997099;28;19926;-71
2024/01/08 03:20:42;;;;;;;;;;;;;;;;;;4997123;28;20474;-71
2024/01/08 03:23:09;;;;;;;;;;;;;;;;;;4997115;28;19925;-72
2024/01/08 03:25:37;;;;;;;;;;;;;;;;;;4997080;28;19926;-71
2024/01/08 03:28:04;;;;;;;;;;;;;;;;;;4997059;28;19973;-71
2024/01/08 03:30:31;;;;;;;;;;;;;;;;;;4997095;28;19933;-72
2024/01/08 03:32:59;;;;;;;;;;;;;;;;;;4996922;28;20607;-72
2024/01/08 03:35:27;;;;;;;;;;;;;;;;;;4996897;28;19931;-71
2024/01/08 03:37:55;;;;;;;;;;;;;;;;;;4997139;28;19926;-71
2024/01/08 03:40:22;;;;;;;;;;;;;;;;;;4979497;28;19930;-73
2024/01/08 03:42:49;;;;;;;;;;;;;;;;;;4996870;28;19926;-71
2024/01/08 03:45:17;;;;;;;;;;;;;;;;;;4996812;28;19925;-71
2024/01/08 03:47:44;;;;;;;;;;;;;;;;;;4996738;28;19926;-71
2024/01/08 03:50:12;;;;;;;;;;;;;;;;;;4979494;28;19936;-71
2024/01/08 03:52:40;;;;;;;;;;;;;;;;;;4996694;28;20000;-71
2024/01/08 03:55:09;;;;;;;;;;;;;;;;;;4996753;28;20403;-71
2024/01/08 03:57:37;;;;;;;;;;;;;;;;;;4996562;28;19933;-71
2024/01/08 04:00:04;;;;;;;;;;;;;;;;;;4978894;28;19930;-71
2024/01/08 04:02:37;;;;;;;;;;;;;;;;;;4996462;28;20012;-71
2024/01/08 04:05:04;;;;;;;;;;;;;;;;;;4996339;28;19930;-71
2024/01/08 04:07:31;;;;;;;;;;;;;;;;;;4996313;28;19985;-71
2024/01/08 04:09:59;;;;;;;;;;;;;;;;;;4978902;28;19930;-71
2024/01/08 04:12:26;;;;;;;;;;;;;;;;;;4996203;28;20021;-71
2024/01/08 04:14:54;;;;;;;;;;;;;;;;;;4996116;28;19957;-72
2024/01/08 04:17:21;;;;;;;;;;;;;;;;;;4995959;28;20434;-71
2024/01/08 04:19:48;;;;;;;;;;;;;;;;;;4996451;28;20455;-72
2024/01/08 04:22:16;;;;;;;;;;;;;;;;;;4978729;28;19925;-70
2024/01/08 04:24:43;;;;;;;;;;;;;;;;;;4996128;28;19925;-71
2024/01/08 04:27:10;;;;;;;;;;;;;;;;;;4995950;28;19938;-70
2024/01/08 04:29:38;;;;;;;;;;;;;;;;;;4996209;28;20356;-71
2024/01/08 04:32:05;;;;;;;;;;;;;;;;;;4995855;28;19980;-71
2024/01/08 04:34:33;;;;;;;;;;;;;;;;;;4995832;28;19979;-72
2024/01/08 04:37:00;;;;;;;;;;;;;;;;;;4978565;28;19926;-71
2024/01/08 04:39:27;;;;;;;;;;;;;;;;;;5003040;28;19926;-72
2024/01/08 04:41:55;;;;;;;;;;;;;;;;;;5015526;28;19926;-72
2024/01/08 04:44:22;;;;;;;;;;;;;;;;;;5015132;28;20268;-71
2024/01/08 04:46:50;;;;;;;;;;;;;;;;;;5015168;28;19933;-71
2024/01/08 04:49:17;;;;;;;;;;;;;;;;;;5015035;28;20371;-71
2024/01/08 04:51:45;;;;;;;5.75;3.75;;;;;;;;;;4981015;28;19971;-73
2024/01/08 04:54:13;;;;;;;5.80;2.28;;;;;;;;;;5014608;28;20049;-71
2024/01/08 04:56:41;;;;;;;4.22;3.10;;;;;;;;;;5014573;28;20046;-73
2024/01/08 04:59:08;;;;;;;4.97;2.72;;;;;;;;;;5014663;28;20439;-73
2024/01/08 05:01:37;;;;;;;6.85;4.22;;;;;;;;;;5014450;28;20127;-71
2024/01/08 05:04:05;;;;;;;5.15;3.42;;;;;;;;;;5014577;28;20065;-74
2024/01/08 05:06:36;;;;;;;4.55;3.80;;;;;;;;;;5014433;28;20045;-73
2024/01/08 05:09:03;;;;;;;4.85;3.50;;;;;;;;;;5014311;28;20034;-71
2024/01/08 05:11:31;;;;;;;5.07;3.20;;;;;;;;;;5014607;28;20049;-73
2024/01/08 05:13:59;;;;;;;4.40;3.58;;;;;;;;;;5014396;28;20149;-72
2024/01/08 05:16:26;;;;;;;5.95;3.60;;;;;;;;;;4996845;28;20050;-73
2024/01/08 05:18:54;;;;;;;4.35;2.92;;;;;;;;;;5014217;28;20525;-73
2024/01/08 05:21:22;;;;;;;5.43;3.85;;;;;;;;;;5014380;28;20125;-72
2024/01/08 05:23:49;;;;;;;5.05;3.33;;;;;;;;;;5013801;28;20096;-74
2024/01/08 05:26:18;;;;;;;5.25;3.58;;;;;;;;;;5014192;28;20128;-71
2024/01/08 05:28:46;;;;;;;4.93;3.78;;;;;;;;;;5014090;28;20088;-73
2024/01/08 05:31:14;;;;;;;4.78;3.17;;;;;;;;;;5013925;28;20045;-74
2024/01/08 05:33:41;;;;;;;3.78;3.00;;;;;;;;;;4996239;28;20042;-72
2024/01/08 05:36:09;;;;;;;4.72;3.42;;;;;;;;;;5013710;28;20053;-72
2024/01/08 05:38:36;;;;;;;;;;;;;;;;;;4996641;28;20042;-72
2024/01/08 05:41:04;;;;;;;6.55;3.88;;;;;;;;;;5013928;28;20268;-73
2024/01/08 05:43:37;;;;;;;5.57;3.10;;;;;;;;;;4996096;28;20038;-73
2024/01/08 05:46:06;;;;;;;6.13;4.30;;;;;;;;;;5014042;28;20403;-72
2024/01/08 05:48:37;;;;;;;4.60;3.35;;;;;;;;;;5003520;28;20069;-73
2024/01/08 05:51:05;;;;;;;3.35;2.78;;;;;;;;;;4993951;28;20043;-73
2024/01/08 05:53:33;;;;;;;4.95;3.55;;;;;;;;;;4977139;28;20484;-73
2024/01/08 05:56:00;;;;;;;4.30;3.35;;;;;;;;;;4994315;28;20046;-72
2024/01/08 05:58:28;;;;;;;7.90;4.55;;;;;;;;;;4994031;28;20035;-72
2024/01/08 06:00:57;;;;;;;6.25;4.20;;;;;;;;;;4993868;28;20066;-72
2024/01/08 06:03:24;;;;;;;6.68;4.57;;;;;;;;;;4993863;28;20042;-72
2024/01/08 06:05:52;;;;;;;5.55;3.72;;;;;;;;;;4993904;28;20042;-72
2024/01/08 06:08:20;;;;;;;5.65;4.35;;;;;;;;;;4993757;28;20043;-73
2024/01/08 06:10:48;;;;;;;6.25;4.32;;;;;;;;;;4993759;28;20550;-73
2024/01/08 06:13:16;;;;;;;6.25;4.47;;;;;;;;;;4993618;28;20042;-72
2024/01/08 06:15:44;;;;;;;6.72;4.63;;;;;;;;;;4993660;28;20121;-73
2024/01/08 06:18:11;;;;;;;7.32;5.10;;;;;;;;;;4993570;28;20046;-72
2024/01/08 06:20:39;;;;;;;7.38;4.28;;;;;;;;;;4976454;28;20436;-71
2024/01/08 06:23:07;;;;;;;5.00;3.53;;;;;;;;;;4993876;28;20396;-72
2024/01/08 06:25:34;;;;;;;9.10;4.60;;;;;;;;;;4993451;28;20046;-72
2024/01/08 06:28:02;;;;;;;7.10;4.40;;;;;;;;;;4993433;28;20069;-73
2024/01/08 06:30:29;;;;;;;5.97;4.07;;;;;;;;;;4993632;28;20046;-72
2024/01/08 06:32:57;;;;;;;7.90;4.97;;;;;;;;;;4993395;28;20038;-73
2024/01/08 06:35:25;;;;;;;7.75;4.75;;;;;;;;;;4992922;28;20047;-72
2024/01/08 06:37:52;;;;;;;7.55;4.70;;;;;;;;;;4993384;28;20105;-74
2024/01/08 06:40:20;;;;;;;7.25;5.05;;;;;;;;;;4993366;28;20042;-74
2024/01/08 06:42:48;;;;;;;8.20;5.75;;;;;;;;;;4993250;28;20053;-74
2024/01/08 06:45:28;;;;;;;9.13;5.43;;;;;;;;;;4993190;28;20042;-74
2024/01/08 06:47:55;;;;;;;8.98;5.38;;;;;;;;;;4993450;28;20400;-74
2024/01/08 06:50:23;;;;;;;9.18;4.93;;;;;;;;;;4993519;28;20548;-72
2024/01/08 06:52:51;;;;;;;6.75;4.97;;;;;;;;;;4993149;28;20437;-70
2024/01/08 06:55:19;;;;;;;8.80;6.63;;;;;;;;;;4993354;28;20042;-74
2024/01/08 06:57:49;;;;;;;10.65;6.28;;;;;;;;;;4993148;28;20042;-73
2024/01/08 07:00:18;;;;;;;9.05;6.35;;;;;;;;;;4993000;28;20046;-73
2024/01/08 07:02:45;;;;;;;11.02;5.60;;;;;;;;;;4992925;28;20125;-72
2024/01/08 07:05:14;;;;;;;11.18;6.65;;;;;;;;;;4959823;28;20114;-73
2024/01/08 07:07:42;;;;;;;15.13;8.90;;;;;;;;;;4993100;28;20042;-73
2024/01/08 07:10:09;;;;;;;10.85;7.00;;;;;;;;;;4992783;28;20046;-73
2024/01/08 07:12:37;;;;;;;10.10;6.38;;;;;;;;;;4992916;28;20042;-72
2024/01/08 07:15:05;;;;;;;8.63;5.50;;;;;;;;;;4993204;28;20073;-73
2024/01/08 07:17:33;;;;;;;8.35;5.07;;;;;;;;;;4992799;28;20058;-72
2024/01/08 07:20:02;;;;;;;10.52;6.32;;;;;;;;;;4993232;28;20058;-72
2024/01/08 07:22:30;;;;;;;7.93;5.35;;;;;;;;;;4992946;28;20129;-72
2024/01/08 07:24:57;;;;;;;9.45;6.53;;;;;;;;;;4959861;28;20485;-71
2024/01/08 07:27:26;;;;;;;6.20;3.88;;;;;;;;;;4993192;28;20053;-71
2024/01/08 07:29:54;;;;;;;7.30;4.57;;;;;;;;;;4992961;28;20062;-72
2024/01/08 07:32:21;;;;;;;7.97;5.05;;;;;;;;;;4993345;28;20399;-71
2024/01/08 07:34:49;;;;;;;11.30;6.03;;;;;;;;;;4992965;28;20049;-72
2024/01/08 07:37:16;;;;;;;7.60;4.57;;;;;;;;;;4993256;28;20122;-71
2024/01/08 07:39:44;;;;;;;7.03;4.55;;;;;;;;;;4992729;28;20093;-71
2024/01/08 07:42:12;;;;;;;9.88;6.00;;;;;;;;;;4992968;28;20437;-72
2024/01/08 07:44:39;;;;;;;5.75;3.80;;;;;;;;;;4992741;28;20047;-72
2024/01/08 07:47:07;;;;;;;8.30;5.47;;;;;;;;;;4996216;28;20101;-73
2024/01/08 07:49:38;;;;;;;7.03;5.00;;;;;;;;;;4996224;28;20441;-72
2024/01/08 07:52:05;;;;;;;8.40;5.30;;;;;;;;;;4979092;28;20050;-73
2024/01/08 07:54:33;;;;;;;8.00;4.15;;;;;;;;;;4996320;28;20046;-72
2024/01/08 07:57:03;;;;;;;7.70;4.18;;;;;;;;;;4996202;28;20066;-72
2024/01/08 07:59:35;;;;;;;6.10;4.00;;;;;;;;;;4996323;28;20057;-72
2024/01/08 08:02:04;;;;;;;7.88;4.95;;;;;;;;;;4978724;28;20085;-73
2024/01/08 08:04:32;;;;;;;7.22;4.20;;;;;;;;;;4996021;28;20038;-74
2024/01/08 08:06:59;;;;;;;7.22;4.20;;;;;;;;;;4996225;28;20042;-72
2024/01/08 08:09:28;;;;;;;5.95;3.78;;;;;;;;;;4995794;28;20042;-71
2024/01/08 08:11:56;;;;;;;6.95;3.78;;;;;;;;;;4995909;28;20141;-73
2024/01/08 08:14:23;;;;;;;6.43;4.03;;;;;;;;;;4995740;28;20097;-73
2024/01/08 08:16:51;;;;;;;7.32;4.18;;;;;;;;;;4975074;28;20054;-73
2024/01/08 08:19:18;;;;;;;6.60;3.67;;;;;;;;;;4976411;28;20053;-72
2024/01/08 08:21:49;;;;;;;5.90;3.97;;;;;;;;;;4976399;28;20043;-71
2024/01/08 08:24:19;;;;;;;6.32;4.13;;;;;;;;;;4976287;28;20062;-73
2024/01/08 08:26:46;;;;;;;7.85;4.80;;;;;;;;;;4976154;28;20050;-73
2024/01/08 08:29:14;;;;;;;6.75;4.63;;;;;;;;;;4975972;28;20046;-72
2024/01/08 08:31:42;;;;;;;7.30;5.13;;;;;;;;;;4976317;28;20039;-72
2024/01/08 08:34:09;;;;;;;9.98;5.03;;;;;;;;;;4976122;28;20047;-72
2024/01/08 08:36:39;;;;;;;9.00;5.32;;;;;;;;;;4975954;28;20043;-73
2024/01/08 08:39:06;;;;;;;8.63;4.57;;;;;;;;;;4976061;28;20047;-73
2024/01/08 08:41:34;;;;;;;8.27;5.45;;;;;;;;;;4976444;28;20049;-73
2024/01/08 08:44:02;;;;;;;10.57;5.13;;;;;;;;;;4975852;28;20409;-71
2024/01/08 08:46:30;;;;;;;11.23;7.30;;;;;;;;;;4976044;28;20101;-72
2024/01/08 08:48:58;;;;;;;13.80;6.22;;;;;;;;;;4975734;28;20124;-71
2024/01/08 08:51:25;;;;;;;10.82;6.65;;;;;;;;;;4975797;28;20039;-74
2024/01/08 08:53:54;;;;;;;9.48;5.80;;;;;;;;;;4976157;28;20068;-74
2024/01/08 08:56:22;;;;;;;9.10;5.63;;;;;;;;;;4975603;28;20035;-73
2024/01/08 08:58:50;;;;;;;10.13;6.57;;;;;;;;;;4975118;28;20055;-72
2024/01/08 09:01:17;;;;;;;9.57;6.18;;;;;;;;;;4974300;28;20497;-72
2024/01/08 09:03:45;;;;;;;10.40;6.22;;;;;;;;;;4974296;28;20073;-73
2024/01/08 09:06:13;;;;;;;7.95;5.25;;;;;;;;;;4975851;28;20479;-74
2024/01/08 09:08:41;;;;;;;10.07;6.38;;;;;;;;;;4975416;28;20074;-72
2024/01/08 09:11:09;;;;;;;8.38;4.82;;;;;;;;;;4975580;28;20046;-73
2024/01/08 09:13:37;;;;;;;12.00;7.22;;;;;;;;;;4975346;28;20053;-71
2024/01/08 09:16:05;;;;;;;11.90;6.55;;;;;;;;;;4974789;28;20129;-72
2024/01/08 09:18:32;;;;;;;12.38;6.88;;;;;;;;;;4994766;28;20038;-71
2024/01/08 09:21:00;;;;;;;9.13;5.20;;;;;;;;;;4994885;28;20480;-71
2024/01/08 09:23:27;;;;;;;11.15;6.95;;;;;;;;;;4994730;28;20070;-71
2024/01/08 09:25:55;;;;;;;8.73;5.78;;;;;;;;;;4994761;28;20046;-71
2024/01/08 09:28:23;;;;;;;9.75;6.15;;;;;;;;;;4994530;28;20046;-69
2024/01/08 09:30:50;;;;;;;10.25;5.75;;;;;;;;;;4994603;28;20089;-71
2024/01/08 09:33:18;;;;;;;9.10;6.47;;;;;;;;;;4994812;28;20112;-71
2024/01/08 09:35:47;;;;;;;8.90;6.28;;;;;;;;;;4994728;28;20477;-71
2024/01/08 09:38:14;;;;;;;9.70;6.32;;;;;;;;;;4994613;28;20042;-71
2024/01/08 09:40:42;;;;;;;8.30;5.25;;;;;;;;;;4994515;28;20535;-73
2024/01/08 09:43:12;;;;;;;7.55;4.55;;;;;;;;;;4977082;28;20133;-71
2024/01/08 09:45:43;;;;;;;9.13;5.70;;;;;;;;;;4994509;28;20448;-73
2024/01/08 09:48:11;;;;;;;7.22;5.03;;;;;;;;;;4994169;28;20100;-71
2024/01/08 09:50:39;;;;;;;12.20;7.70;;;;;;;;;;4994355;28;20423;-72
2024/01/08 09:53:06;;;;;;;10.25;7.63;;;;;;;;;;4994417;28;20161;-72
2024/01/08 09:55:34;;;;;;;9.13;5.57;;;;;;;;;;4994217;28;20065;-72
2024/01/08 09:58:03;;;;;;;17.95;9.98;;;;;;;;;;4994265;28;20038;-72
2024/01/08 10:00:31;;;;;;;10.85;6.63;;;;;;;;;;4977343;28;20046;-72
2024/01/08 10:02:58;;;;;;;9.38;5.28;;;;;;;;;;4993876;28;20567;-73
2024/01/08 10:05:29;;;;;;;8.40;5.20;;;;;;;;;;4976749;28;20042;-71
2024/01/08 10:08:02;;;;;;;9.43;5.88;;;;;;;;;;4993795;28;20455;-73
2024/01/08 10:10:30;;;;;;;12.32;7.22;;;;;;;;;;4993850;28;20077;-73
2024/01/08 10:12:58;;;;;;;8.50;5.20;;;;;;;;;;4993784;28;20050;-73
2024/01/08 10:15:27;;;;;;;10.63;5.95;;;;;;;;;;4993820;28;20034;-74
2024/01/08 10:17:56;;;;;;;9.50;6.05;;;;;;;;;;4993734;28;20074;-72
2024/01/08 10:20:24;;;;;;;11.02;6.60;;;;;;;;;;4994035;28;20042;-72
2024/01/08 10:23:05;;;;;;;9.30;6.30;;;;;;;;;;4960151;28;20529;-72
2024/01/08 10:25:33;;;;;;;11.65;7.13;;;;;;;;;;4993552;28;20108;-73
2024/01/08 10:28:00;;;;;;;8.68;4.75;;;;;;;;;;4993753;28;20034;-72
2024/01/08 10:30:28;;;;;;;9.82;5.28;;;;;;;;;;4993530;28;20116;-73
2024/01/08 10:32:58;;;;;;;10.45;6.32;;;;;;;;;;4993610;28;20104;-73
2024/01/08 10:35:28;;;;;;;12.40;7.13;;;;;;;;;;4993605;28;20081;-74
2024/01/08 10:37:59;;;;;;;10.98;6.05;;;;;;;;;;4993478;28;20484;-73
2024/01/08 10:40:30;;;;;;;11.45;7.30;;;;;;;;;;4993293;28;20049;-73
2024/01/08 10:42:57;;;;;;;7.82;5.30;;;;;;;;;;4993548;28;20042;-74
2024/01/08 10:45:25;;;;;;;12.63;7.15;;;;;;;;;;4993397;28;20042;-74
2024/01/08 10:48:02;;;;;;;13.80;6.88;;;;;;;;;;4993344;28;20136;-75
2024/01/08 10:50:30;;;;;;;13.02;8.02;;;;;;;;;;4993599;28;20069;-72
2024/01/08 10:52:58;;;;;;;12.70;7.63;;;;;;;;;;4993240;28;20034;-73
2024/01/08 10:55:26;;;;;;;11.38;6.40;;;;;;;;;;4993509;28;20400;-74
2024/01/08 10:58:04;;;;;;;9.88;5.30;;;;;;;;;;4976252;28;20047;-73
2024/01/08 11:00:32;;;;;;;10.63;7.30;;;;;;;;;;5008271;28;20047;-73
2024/01/08 11:03:00;;;;;;;13.50;7.00;;;;;;;;;;4975795;28;20038;-73
2024/01/08 11:05:29;;;;;;;16.67;9.65;;;;;;;;;;4975815;28;20057;-72
2024/01/08 11:07:57;;;;;;;9.65;5.97;;;;;;;;;;4975779;28;20050;-73
2024/01/08 11:10:25;;;;;;;9.68;5.30;;;;;;;;;;4993200;28;20066;-73
2024/01/08 11:12:57;;;;;;;9.95;6.60;;;;;;;;;;4993066;28;20050;-74
2024/01/08 11:15:29;;;;;;;12.65;6.70;;;;;;;;;;4993175;28;20046;-74
2024/01/08 11:18:03;;;;;;;8.48;6.15;;;;;;;;;;4993261;28;20054;-74
2024/01/08 11:20:34;;;;;;;10.90;6.25;;;;;;;;;;4994374;28;20046;-74
2024/01/08 11:23:02;;;;;;;10.18;6.65;;;;;;;;;;4997175;28;20049;-73
2024/01/08 11:25:30;;;;;;;11.20;6.97;;;;;;;;;;4997070;28;20050;-73
2024/01/08 11:27:59;;;;;;;11.43;6.18;;;;;;;;;;4996854;28;20100;-73
2024/01/08 11:30:26;;;;;;;11.40;6.75;;;;;;;;;;4996779;28;20089;-73
2024/01/08 11:33:29;;;;;;;11.25;6.13;;;;;;;;;;4996871;28;20035;-73
2024/01/08 11:36:07;;;;;;;14.85;7.88;;;;;;;;;;4917748;29;20048;-74
2024/01/08 11:38:38;;;;;;;13.88;8.48;;;;;;;;;;4987694;28;20085;-74
2024/01/08 11:41:06;;;;;;;12.02;7.50;;;;;;;;;;4996695;28;20066;-73
2024/01/08 11:43:36;;;;;;;12.20;8.07;;;;;;;;;;4996497;28;20053;-75
2024/01/08 11:46:04;;;;;;;12.30;7.85;;;;;;;;;;4996617;28;20388;-74
2024/01/08 11:48:31;;;;;;;10.82;6.25;;;;;;;;;;4996519;28;20496;-72
2024/01/08 11:50:59;;;;;;;14.82;8.10;;;;;;;;;;4996416;28;20081;-74
2024/01/08 11:53:27;;;;;;;11.90;6.45;;;;;;;;;;4996562;28;20069;-74
2024/01/08 11:55:54;;;;;;;10.15;6.10;;;;;;;;;;4996312;28;20047;-73
2024/01/08 11:58:22;;;;;;;9.52;5.25;;;;;;;;;;4996388;28;20101;-73
2024/01/08 12:00:50;;;;;;;11.75;6.72;;;;;;;;;;4996435;28;20124;-74
2024/01/08 12:03:23;;;;;;;13.88;8.95;;;;;;;;;;4996008;28;20427;-74
2024/01/08 12:06:07;;;;;;;10.05;6.35;;;;;;;;;;4996184;28;20062;-73
2024/01/08 12:08:35;;;;;;;10.60;6.03;;;;;;;;;;4995990;28;20048;-73
2024/01/08 12:11:04;;;;;;;11.90;7.72;;;;;;;;;;4996022;28;20034;-73
2024/01/08 12:13:32;;;;;;;13.35;7.93;;;;;;;;;;4996117;28;20045;-73
2024/01/08 12:16:01;;;;;;;12.40;7.80;;;;;;;;;;4995834;28;20065;-72
2024/01/08 12:18:29;;;;;;;10.27;6.05;;;;;;;;;;4995937;28;20054;-72
2024/01/08 12:20:57;;;;;;;11.68;6.55;;;;;;;;;;4995989;28;20038;-72
2024/01/08 12:23:26;;;;;;;10.15;5.35;;;;;;;;;;4995652;28;20747;-72
2024/01/08 12:25:54;;;;;;;11.25;6.97;;;;;;;;;;4996070;28;20046;-72
2024/01/08 12:28:21;;;;;;;11.35;7.60;;;;;;;;;;4995693;28;20054;-72
2024/01/08 12:30:52;;;;;;;7.47;4.57;;;;;;;;;;4995762;28;20403;-73
2024/01/08 12:33:21;;;;;;;8.30;5.47;;;;;;;;;;4994950;28;20042;-73
2024/01/08 12:35:53;;;;;;;9.63;5.20;;;;;;;;;;4995558;28;20053;-73
2024/01/08 12:38:21;;;;;;;11.80;7.47;;;;;;;;;;4995352;28;20484;-73
2024/01/08 12:40:52;;;;;;;7.43;4.93;;;;;;;;;;4995519;28;20041;-73
2024/01/08 12:43:20;;;;;;;10.68;6.93;;;;;;;;;;4995571;28;20053;-73
2024/01/08 12:45:49;;;;;;;9.43;6.47;;;;;;;;;;4995311;28;20417;-73
2024/01/08 12:48:17;;;;;;;12.43;6.50;;;;;;;;;;4995623;28;20852;-73
2024/01/08 12:50:47;;;;;;;8.70;5.32;;;;;;;;;;4961919;28;20127;-72
2024/01/08 12:53:19;;;;;;;8.55;4.47;;;;;;;;;;4995332;28;20050;-73
2024/01/08 12:55:48;;;;;;;14.43;7.57;;;;;;;;;;4995276;28;20053;-72
2024/01/08 12:58:15;;;;;;;10.55;6.43;;;;;;;;;;4995283;28;20057;-74
2024/01/08 13:00:45;;;;;;;11.48;6.65;;;;;;;;;;4995736;28;20066;-71
2024/01/08 13:03:12;;;;;;;10.85;6.63;;;;;;;;;;4995040;28;20128;-73
2024/01/08 13:05:41;;;;;;;13.63;7.32;;;;;;;;;;4995117;28;20070;-73
2024/01/08 13:08:08;;;;;;;17.23;7.00;;;;;;;;;;4995083;28;20061;-73
2024/01/08 13:10:36;;;;;;;14.48;5.75;;;;;;;;;;4994903;28;20061;-72
2024/01/08 13:13:03;;;;;;;15.85;8.02;;;;;;;;;;4994839;28;20121;-73
2024/01/08 13:15:31;;;;;;;10.20;5.90;;;;;;;;;;4994834;28;20038;-73
2024/01/08 13:17:59;;;;;;;13.30;7.85;;;;;;;;;;4994726;28;20054;-72
2024/01/08 13:20:28;;;;;;;11.88;6.80;;;;;;;;;;4994827;28;20065;-72
2024/01/08 13:22:56;;;;;;;8.32;5.45;;;;;;;;;;4994808;28;20543;-73
2024/01/08 13:25:24;;;;;;;11.35;5.45;;;;;;;;;;4994698;28;20070;-73
2024/01/08 13:27:51;;;;;;;11.18;6.15;;;;;;;;;;4977416;28;20038;-72
2024/01/08 13:30:19;;;;;;;13.25;7.15;;;;;;;;;;4994656;28;20043;-73
2024/01/08 13:32:47;;;;;;;9.55;5.28;;;;;;;;;;4994590;28;20396;-73
2024/01/08 13:35:15;;;;;;;9.77;6.50;;;;;;;;;;4994488;28;20427;-72
2024/01/08 13:37:42;;;;;;;16.13;6.43;;;;;;;;;;4994529;28;20038;-72
2024/01/08 13:40:11;;;;;;;8.77;5.57;;;;;;;;;;4994646;28;20042;-73
2024/01/08 13:42:39;;;;;;;14.30;6.20;;;;;;;;;;4994410;28;20121;-73
2024/01/08 13:45:08;;;;;;;9.15;5.38;;;;;;;;;;4994303;28;20489;-72
2024/01/08 13:47:36;;;;;;;10.23;6.40;;;;;;;;;;4994170;28;20162;-71
2024/01/08 13:50:07;;;;;;;11.70;5.95;;;;;;;;;;4994259;28;20043;-71
2024/01/08 13:52:34;;;;;;;9.85;5.65;;;;;;;;;;4994242;28;20042;-72
2024/01/08 13:55:02;;;;;;;14.45;6.53;;;;;;;;;;4994014;28;20504;-72
2024/01/08 13:57:30;;;;;;;12.75;6.70;;;;;;;;;;4994091;28;20042;-73
2024/01/08 13:59:57;;;;;;;12.32;5.57;;;;;;;;;;4994068;28;20518;-74
2024/01/08 14:02:27;;;;;;;12.63;6.55;;;;;;;;;;4993867;28;20078;-73
2024/01/08 14:04:54;;;;;;;15.02;6.90;;;;;;;;;;4994075;28;20133;-73
2024/01/08 14:07:23;;;;;;;12.05;6.93;;;;;;;;;;4993908;28;20041;-73
2024/01/08 14:09:50;;;;;;;12.20;7.13;;;;;;;;;;4994024;28;20112;-73
2024/01/08 14:12:18;;;;;;;8.65;6.10;;;;;;;;;;4993818;28;20056;-72
2024/01/08 14:14:45;;;;;;;15.20;7.68;;;;;;;;;;4993688;28;20073;-73
2024/01/08 14:17:13;;;;;;;10.43;5.90;;;;;;;;;;4993583;28;20069;-73
2024/01/08 14:19:41;;;;;;;8.80;5.47;;;;;;;;;;4993477;28;20132;-73
2024/01/08 14:22:08;;;;;;;12.55;7.30;;;;;;;;;;4993256;28;20039;-73
2024/01/08 14:24:37;;;;;;;13.13;7.90;;;;;;;;;;4993586;28;20492;-72
2024/01/08 14:27:06;;;;;;;12.73;6.88;;;;;;;;;;4993389;28;20089;-72
2024/01/08 14:29:34;;;;;;;14.90;7.20;;;;;;;;;;4993310;28;20046;-72
2024/01/08 14:32:02;;;;;;;10.30;6.30;;;;;;;;;;4993541;28;20081;-72
2024/01/08 14:34:29;;;;;;;13.38;8.43;;;;;;;;;;4976078;28;20064;-72
2024/01/08 14:36:57;;;;;;;13.98;7.93;;;;;;;;;;4976338;28;20412;-74
2024/01/08 14:39:27;;;;;;;17.50;6.97;;;;;;;;;;4976307;28;20044;-72
2024/01/08 14:41:54;;;;;;;15.27;6.85;;;;;;;;;;4993228;28;20092;-73
2024/01/08 14:44:22;;;;;;;12.68;7.80;;;;;;;;;;4993215;28;20046;-73
2024/01/08 14:46:49;;;;;;;14.43;7.65;;;;;;;;;;4993259;28;20050;-73
2024/01/08 14:49:17;;;;;;;17.25;8.30;;;;;;;;;;4993181;28;20039;-73
2024/01/08 14:51:48;;;;;;;12.38;6.22;;;;;;;;;;4993066;28;20053;-73
2024/01/08 14:54:15;;;;;;;9.77;5.20;;;;;;;;;;4993057;28;20481;-73
2024/01/08 14:56:43;;;;;;;13.35;6.47;;;;;;;;;;4992627;28;20050;-74
2024/01/08 14:59:11;;;;;;;15.90;7.65;;;;;;;;;;4993255;28;20053;-73
2024/01/08 15:01:39;;;;;;;8.85;5.35;;;;;;;;;;4993284;28;20074;-72